sensor_id;sensor_type;location;lat;lon;timestamp;pressure;altitude;pressure_sealevel;temperature;humidity
68508;BME280;55510;49.560;19.090;2024-01-30T07:20:11;98162.69;;;-4.90;100.00
68508;BME280;55510;49.560;19.090;2024-01-30T07:23:13;98165.94;;;-4.35;100.00
68508;BME280;55510;49.560;19.090;2024-01-30T07:26:16;98160.31;;;-3.54;100.00
68508;BME280;55510;49.560;19.090;2024-01-30T07:29:16;98166.31;;;-2.69;100.00
68508;BME280;55510;49.560;19.090;2024-01-30T07:32:18;98169.00;;;-2.01;100.00
68508;BME280;55510;49.560;19.090;2024-01-30T07:35:19;98170.66;;;-1.33;100.00
68508;BME280;55510;49.560;19.090;2024-01-30T07:38:19;98177.69;;;-0.80;98.76
68508;BME280;55510;49.560;19.090;2024-01-30T07:41:21;98177.88;;;-0.29;95.17
68508;BME280;55510;49.560;19.090;2024-01-30T07:44:22;98173.72;;;-0.01;91.69
68508;BME280;55510;49.560;19.090;2024-01-30T07:47:24;98171.84;;;0.21;89.39
68508;BME280;55510;49.560;19.090;2024-01-30T07:50:25;98175.44;;;0.20;84.12
68508;BME280;55510;49.560;19.090;2024-01-30T07:53:26;98175.06;;;-0.06;84.98
68508;BME280;55510;49.560;19.090;2024-01-30T07:56:28;98174.38;;;-0.39;85.29
68508;BME280;55510;49.560;19.090;2024-01-30T07:59:29;98170.94;;;-0.61;85.09
68508;BME280;55510;49.560;19.090;2024-01-30T08:02:29;98167.03;;;-0.88;86.52
68508;BME280;55510;49.560;19.090;2024-01-30T08:05:30;98171.75;;;-1.03;88.43
68508;BME280;55510;49.560;19.090;2024-01-30T08:08:31;98166.28;;;-1.11;89.51
68508;BME280;55510;49.560;19.090;2024-01-30T08:11:31;98162.88;;;-1.12;90.71
68508;BME280;55510;49.560;19.090;2024-01-30T08:14:32;98163.06;;;-1.04;91.66
68508;BME280;55510;49.560;19.090;2024-01-30T08:17:33;98170.63;;;-1.22;93.03
68508;BME280;55510;49.560;19.090;2024-01-30T08:20:34;98168.34;;;-1.15;94.27
68508;BME280;55510;49.560;19.090;2024-01-30T08:23:38;98165.22;;;-1.09;94.33
68508;BME280;55510;49.560;19.090;2024-01-30T08:26:39;98161.09;;;-0.90;94.28
68508;BME280;55510;49.560;19.090;2024-01-30T08:29:40;98160.03;;;-0.66;93.26
68508;BME280;55510;49.560;19.090;2024-01-30T08:32:40;98171.81;;;-0.51;92.66
68508;BME280;55510;49.560;19.090;2024-01-30T08:35:42;98160.94;;;-0.25;90.55
68508;BME280;55510;49.560;19.090;2024-01-30T08:38:43;98172.44;;;-0.06;90.32
68508;BME280;55510;49.560;19.090;2024-01-30T08:41:44;98176.28;;;0.21;89.38
68508;BME280;55510;49.560;19.090;2024-01-30T08:44:45;98169.75;;;1.15;87.49
68508;BME280;55510;49.560;19.090;2024-01-30T08:47:46;98169.72;;;1.54;82.46
68508;BME280;55510;49.560;19.090;2024-01-30T08:50:47;98172.78;;;2.71;79.94
68508;BME280;55510;49.560;19.090;2024-01-30T08:53:48;98177.31;;;3.68;77.14
68508;BME280;55510;49.560;19.090;2024-01-30T08:56:49;98176.75;;;4.09;74.31
68508;BME280;55510;49.560;19.090;2024-01-30T08:59:50;98172.81;;;3.79;71.75
68508;BME280;55510;49.560;19.090;2024-01-30T09:02:51;98173.31;;;3.82;71.33
68508;BME280;55510;49.560;19.090;2024-01-30T09:05:51;98177.53;;;4.01;69.04
68508;BME280;55510;49.560;19.090;2024-01-30T09:08:52;98177.38;;;4.03;69.09
68508;BME280;55510;49.560;19.090;2024-01-30T09:11:53;98175.06;;;4.00;68.90
68508;BME280;55510;49.560;19.090;2024-01-30T09:14:54;98172.72;;;3.97;69.50
68508;BME280;55510;49.560;19.090;2024-01-30T09:17:55;98166.75;;;2.97;73.40
68508;BME280;55510;49.560;19.090;2024-01-30T09:20:56;98167.84;;;3.31;72.34
68508;BME280;55510;49.560;19.090;2024-01-30T09:24:02;98163.97;;;3.61;74.08
68508;BME280;55510;49.560;19.090;2024-01-30T09:27:06;98171.44;;;4.01;72.06
68508;BME280;55510;49.560;19.090;2024-01-30T09:30:07;98164.38;;;4.53;69.64
68508;BME280;55510;49.560;19.090;2024-01-30T09:33:08;98155.22;;;4.22;65.88
68508;BME280;55510;49.560;19.090;2024-01-30T09:36:09;98164.44;;;4.77;65.79
68508;BME280;55510;49.560;19.090;2024-01-30T09:39:09;98158.69;;;4.82;62.31
68508;BME280;55510;49.560;19.090;2024-01-30T09:45:29;98148.31;;;5.14;61.04
68508;BME280;55510;49.560;19.090;2024-01-30T09:48:33;98152.31;;;4.33;64.64
68508;BME280;55510;49.560;19.090;2024-01-30T09:51:35;98144.81;;;4.12;64.95
68508;BME280;55510;49.560;19.090;2024-01-30T09:54:36;98149.06;;;4.05;66.42
68508;BME280;55510;49.560;19.090;2024-01-30T09:57:38;98141.44;;;4.37;65.79
68508;BME280;55510;49.560;19.090;2024-01-30T10:00:39;98138.41;;;5.07;63.07
68508;BME280;55510;49.560;19.090;2024-01-30T10:03:40;98135.56;;;5.59;60.72
68508;BME280;55510;49.560;19.090;2024-01-30T10:06:41;98139.50;;;6.28;59.33
68508;BME280;55510;49.560;19.090;2024-01-30T10:09:43;98128.34;;;5.03;60.14
68508;BME280;55510;49.560;19.090;2024-01-30T10:12:44;98119.59;;;5.27;61.76
68508;BME280;55510;49.560;19.090;2024-01-30T10:15:45;98111.34;;;4.64;64.13
68508;BME280;55510;49.560;19.090;2024-01-30T10:18:46;98118.47;;;5.13;64.09
68508;BME280;55510;49.560;19.090;2024-01-30T10:21:46;98108.22;;;4.69;64.79
68508;BME280;55510;49.560;19.090;2024-01-30T10:24:48;98108.59;;;4.23;65.42
68508;BME280;55510;49.560;19.090;2024-01-30T10:27:55;98109.13;;;4.26;64.12
68508;BME280;55510;49.560;19.090;2024-01-30T10:31:00;98097.81;;;4.50;64.22
68508;BME280;55510;49.560;19.090;2024-01-30T10:34:00;98107.19;;;4.61;64.14
68508;BME280;55510;49.560;19.090;2024-01-30T10:37:09;98103.88;;;4.43;66.26
68508;BME280;55510;49.560;19.090;2024-01-30T10:40:16;98097.31;;;4.55;63.43
68508;BME280;55510;49.560;19.090;2024-01-30T10:43:20;98098.50;;;4.94;63.09
68508;BME280;55510;49.560;19.090;2024-01-30T10:46:25;98083.34;;;5.77;60.33
68508;BME280;55510;49.560;19.090;2024-01-30T10:49:28;98088.22;;;5.49;60.03
68508;BME280;55510;49.560;19.090;2024-01-30T10:52:29;98083.75;;;5.58;60.94
68508;BME280;55510;49.560;19.090;2024-01-30T10:55:32;98082.78;;;5.42;60.60
68508;BME280;55510;49.560;19.090;2024-01-30T10:58:33;98081.56;;;5.61;60.52
68508;BME280;55510;49.560;19.090;2024-01-30T11:01:35;98066.84;;;4.77;63.49
68508;BME280;55510;49.560;19.090;2024-01-30T11:04:45;98068.13;;;5.31;62.09
68508;BME280;55510;49.560;19.090;2024-01-30T11:07:46;98065.94;;;5.43;62.08
68508;BME280;55510;49.560;19.090;2024-01-30T11:10:47;98059.56;;;5.04;61.79
68508;BME280;55510;49.560;19.090;2024-01-30T11:13:49;98051.97;;;5.18;62.16
68508;BME280;55510;49.560;19.090;2024-01-30T11:16:50;98063.56;;;6.45;60.92
68508;BME280;55510;49.560;19.090;2024-01-30T11:19:51;98063.34;;;5.83;59.23
68508;BME280;55510;49.560;19.090;2024-01-30T11:22:54;98050.34;;;5.08;61.44
68508;BME280;55510;49.560;19.090;2024-01-30T11:25:56;98050.94;;;5.44;60.91
68508;BME280;55510;49.560;19.090;2024-01-30T11:28:56;98057.25;;;6.22;58.86
68508;BME280;55510;49.560;19.090;2024-01-30T11:31:58;98063.09;;;7.56;56.25
68508;BME280;55510;49.560;19.090;2024-01-30T11:34:59;98053.00;;;7.21;55.01
68508;BME280;55510;49.560;19.090;2024-01-30T11:38:00;98054.31;;;7.71;54.81
68508;BME280;55510;49.560;19.090;2024-01-30T11:41:02;98052.91;;;7.15;55.06
68508;BME280;55510;49.560;19.090;2024-01-30T11:44:04;98043.50;;;6.50;57.48
68508;BME280;55510;49.560;19.090;2024-01-30T11:47:04;98042.47;;;6.05;59.19
68508;BME280;55510;49.560;19.090;2024-01-30T11:50:06;98040.72;;;7.05;56.83
68508;BME280;55510;49.560;19.090;2024-01-30T11:53:07;98041.06;;;7.55;54.67
68508;BME280;55510;49.560;19.090;2024-01-30T11:56:08;98037.75;;;7.98;52.11
68508;BME280;55510;49.560;19.090;2024-01-30T11:59:08;98044.06;;;9.63;47.89
68508;BME280;55510;49.560;19.090;2024-01-30T12:02:15;98032.47;;;8.20;50.92
68508;BME280;55510;49.560;19.090;2024-01-30T12:05:15;98023.63;;;7.61;52.14
68508;BME280;55510;49.560;19.090;2024-01-30T12:08:16;98022.66;;;7.84;52.77
68508;BME280;55510;49.560;19.090;2024-01-30T12:11:17;98018.84;;;7.11;54.50
68508;BME280;55510;49.560;19.090;2024-01-30T12:14:19;98019.69;;;7.27;53.70
68508;BME280;55510;49.560;19.090;2024-01-30T12:17:38;98016.94;;;7.80;52.47
68508;BME280;55510;49.560;19.090;2024-01-30T12:20:39;98011.91;;;7.10;53.36
68508;BME280;55510;49.560;19.090;2024-01-30T12:23:39;98005.81;;;8.28;50.21
68508;BME280;55510;49.560;19.090;2024-01-30T12:26:40;98015.75;;;10.53;46.88
68508;BME280;55510;49.560;19.090;2024-01-30T12:29:42;97996.66;;;7.43;51.82
68508;BME280;55510;49.560;19.090;2024-01-30T12:32:47;97997.16;;;6.08;57.09
68508;BME280;55510;49.560;19.090;2024-01-30T12:35:48;97983.03;;;5.13;61.30
68508;BME280;55510;49.560;19.090;2024-01-30T12:38:49;97977.38;;;5.24;61.42
68508;BME280;55510;49.560;19.090;2024-01-30T12:41:50;97992.75;;;5.60;59.99
68508;BME280;55510;49.560;19.090;2024-01-30T12:44:52;97979.44;;;4.97;61.82
68508;BME280;55510;49.560;19.090;2024-01-30T12:47:52;97976.69;;;5.39;61.40
68508;BME280;55510;49.560;19.090;2024-01-30T12:50:53;97966.19;;;5.14;61.46
68508;BME280;55510;49.560;19.090;2024-01-30T12:53:56;97977.47;;;4.91;61.76
68508;BME280;55510;49.560;19.090;2024-01-30T12:56:57;97978.91;;;5.18;61.42
68508;BME280;55510;49.560;19.090;2024-01-30T12:59:58;97980.03;;;5.24;60.73
68508;BME280;55510;49.560;19.090;2024-01-30T13:02:59;97973.28;;;5.21;60.27
68508;BME280;55510;49.560;19.090;2024-01-30T13:05:59;97979.72;;;5.19;59.77
68508;BME280;55510;49.560;19.090;2024-01-30T13:09:00;97972.94;;;5.25;59.73
68508;BME280;55510;49.560;19.090;2024-01-30T13:12:01;97970.31;;;5.25;60.15
68508;BME280;55510;49.560;19.090;2024-01-30T13:15:02;97972.97;;;5.08;60.29
68508;BME280;55510;49.560;19.090;2024-01-30T13:18:05;97978.34;;;5.40;59.42
68508;BME280;55510;49.560;19.090;2024-01-30T13:21:06;97968.31;;;5.27;60.14
68508;BME280;55510;49.560;19.090;2024-01-30T13:24:06;97978.56;;;5.21;59.47
68508;BME280;55510;49.560;19.090;2024-01-30T13:27:07;97975.81;;;4.98;60.41
68508;BME280;55510;49.560;19.090;2024-01-30T13:30:09;97976.25;;;5.18;60.46
68508;BME280;55510;49.560;19.090;2024-01-30T13:33:10;97975.09;;;5.21;60.64
68508;BME280;55510;49.560;19.090;2024-01-30T13:36:11;97972.63;;;5.19;60.88
68508;BME280;55510;49.560;19.090;2024-01-30T13:39:12;97976.38;;;5.25;60.53
68508;BME280;55510;49.560;19.090;2024-01-30T13:42:13;97978.94;;;5.50;60.03
68508;BME280;55510;49.560;19.090;2024-01-30T13:45:13;97976.34;;;5.42;59.62
68508;BME280;55510;49.560;19.090;2024-01-30T13:48:15;97974.56;;;5.65;59.09
68508;BME280;55510;49.560;19.090;2024-01-30T13:51:16;97985.59;;;5.29;60.28
68508;BME280;55510;49.560;19.090;2024-01-30T13:54:17;97981.22;;;5.61;59.23
68508;BME280;55510;49.560;19.090;2024-01-30T13:57:18;97975.47;;;5.58;59.51
68508;BME280;55510;49.560;19.090;2024-01-30T14:00:19;97977.53;;;5.71;59.02
68508;BME280;55510;49.560;19.090;2024-01-30T14:03:22;97978.53;;;5.70;59.30
68508;BME280;55510;49.560;19.090;2024-01-30T14:06:23;97972.38;;;5.46;59.91
68508;BME280;55510;49.560;19.090;2024-01-30T14:09:24;97973.44;;;5.68;59.33
68508;BME280;55510;49.560;19.090;2024-01-30T14:12:25;97966.44;;;5.44;59.68
68508;BME280;55510;49.560;19.090;2024-01-30T14:15:26;97968.13;;;5.36;59.36
68508;BME280;55510;49.560;19.090;2024-01-30T14:18:27;97968.31;;;5.27;60.84
68508;BME280;55510;49.560;19.090;2024-01-30T14:21:27;97967.28;;;5.36;60.45
68508;BME280;55510;49.560;19.090;2024-01-30T14:24:28;97964.56;;;5.13;61.05
68508;BME280;55510;49.560;19.090;2024-01-30T14:27:29;97962.97;;;4.87;62.29
68508;BME280;55510;49.560;19.090;2024-01-30T14:30:30;97964.63;;;4.88;62.06
68508;BME280;55510;49.560;19.090;2024-01-30T14:33:31;97961.69;;;4.66;63.39
68508;BME280;55510;49.560;19.090;2024-01-30T14:36:32;97962.19;;;4.53;64.10
68508;BME280;55510;49.560;19.090;2024-01-30T14:39:33;97961.69;;;4.33;64.61
68508;BME280;55510;49.560;19.090;2024-01-30T14:42:34;97960.69;;;4.26;65.15
68508;BME280;55510;49.560;19.090;2024-01-30T14:45:36;97958.72;;;4.11;65.97
68508;BME280;55510;49.560;19.090;2024-01-30T14:48:36;97959.19;;;3.98;66.41
68508;BME280;55510;49.560;19.090;2024-01-30T14:51:37;97954.06;;;3.88;66.75
68508;BME280;55510;49.560;19.090;2024-01-30T14:54:38;97954.72;;;3.82;66.38
68508;BME280;55510;49.560;19.090;2024-01-30T14:57:39;97946.13;;;3.72;66.75
68508;BME280;55510;49.560;19.090;2024-01-30T15:00:42;97957.25;;;3.49;68.88
68508;BME280;55510;49.560;19.090;2024-01-30T15:03:43;97956.50;;;3.22;70.89
68508;BME280;55510;49.560;19.090;2024-01-30T15:06:44;97963.97;;;3.09;71.68
68508;BME280;55510;49.560;19.090;2024-01-30T15:09:48;97964.25;;;2.97;71.91
68508;BME280;55510;49.560;19.090;2024-01-30T15:12:49;97972.09;;;2.89;72.38
68508;BME280;55510;49.560;19.090;2024-01-30T15:15:49;97956.16;;;2.64;74.36
68508;BME280;55510;49.560;19.090;2024-01-30T15:18:50;97968.56;;;2.54;75.50
68508;BME280;55510;49.560;19.090;2024-01-30T15:21:51;97964.91;;;2.46;76.14
68508;BME280;55510;49.560;19.090;2024-01-30T15:24:51;97967.47;;;2.38;75.27
68508;BME280;55510;49.560;19.090;2024-01-30T15:27:52;97966.13;;;2.34;75.70
68508;BME280;55510;49.560;19.090;2024-01-30T15:30:53;97959.53;;;2.30;76.42
68508;BME280;55510;49.560;19.090;2024-01-30T15:33:53;97959.91;;;2.17;77.01
68508;BME280;55510;49.560;19.090;2024-01-30T15:36:54;97961.56;;;2.00;77.63
68508;BME280;55510;49.560;19.090;2024-01-30T15:39:55;97961.03;;;1.78;79.87
68508;BME280;55510;49.560;19.090;2024-01-30T15:42:55;97957.25;;;1.63;80.45
68508;BME280;55510;49.560;19.090;2024-01-30T15:45:56;97953.78;;;1.44;81.86
68508;BME280;55510;49.560;19.090;2024-01-30T15:48:57;97953.50;;;1.37;82.25
68508;BME280;55510;49.560;19.090;2024-01-30T15:51:57;97952.72;;;1.37;81.76
68508;BME280;55510;49.560;19.090;2024-01-30T15:54:58;97945.81;;;1.36;81.66
68508;BME280;55510;49.560;19.090;2024-01-30T15:57:59;97952.13;;;1.43;80.89
68508;BME280;55510;49.560;19.090;2024-01-30T16:01:00;97948.00;;;1.30;80.68
68508;BME280;55510;49.560;19.090;2024-01-30T16:04:02;97952.66;;;1.19;81.90
68508;BME280;55510;49.560;19.090;2024-01-30T16:07:03;97958.91;;;1.08;82.65
68508;BME280;55510;49.560;19.090;2024-01-30T16:10:04;97948.44;;;0.98;82.82
68508;BME280;55510;49.560;19.090;2024-01-30T16:13:05;97951.25;;;0.77;85.74
68508;BME280;55510;49.560;19.090;2024-01-30T16:16:06;97946.31;;;0.74;86.04
68508;BME280;55510;49.560;19.090;2024-01-30T16:19:07;97953.47;;;0.71;86.03
68508;BME280;55510;49.560;19.090;2024-01-30T16:22:07;97941.25;;;0.62;87.02
68508;BME280;55510;49.560;19.090;2024-01-30T16:25:08;97951.88;;;0.51;86.65
68508;BME280;55510;49.560;19.090;2024-01-30T16:28:09;97943.06;;;0.32;88.77
68508;BME280;55510;49.560;19.090;2024-01-30T16:31:09;97944.84;;;0.41;88.18
68508;BME280;55510;49.560;19.090;2024-01-30T16:34:10;97949.16;;;0.23;88.89
68508;BME280;55510;49.560;19.090;2024-01-30T16:37:11;97945.28;;;0.27;88.46
68508;BME280;55510;49.560;19.090;2024-01-30T16:40:11;97942.91;;;0.43;87.01
68508;BME280;55510;49.560;19.090;2024-01-30T16:43:12;97944.31;;;0.38;87.10
68508;BME280;55510;49.560;19.090;2024-01-30T16:46:13;97941.00;;;0.26;87.98
68508;BME280;55510;49.560;19.090;2024-01-30T16:49:13;97946.66;;;0.21;87.96
68508;BME280;55510;49.560;19.090;2024-01-30T16:52:14;97945.84;;;0.21;87.44
68508;BME280;55510;49.560;19.090;2024-01-30T16:55:15;97948.59;;;0.29;87.60
68508;BME280;55510;49.560;19.090;2024-01-30T16:58:16;97948.31;;;0.52;86.69
68508;BME280;55510;49.560;19.090;2024-01-30T17:01:17;97946.88;;;0.67;85.57
68508;BME280;55510;49.560;19.090;2024-01-30T17:04:18;97943.56;;;0.65;84.53
68508;BME280;55510;49.560;19.090;2024-01-30T17:07:21;97952.34;;;0.84;84.09
68508;BME280;55510;49.560;19.090;2024-01-30T17:10:24;97953.78;;;1.06;82.47
68508;BME280;55510;49.560;19.090;2024-01-30T17:13:25;97953.06;;;1.14;82.12
68508;BME280;55510;49.560;19.090;2024-01-30T17:16:26;97952.09;;;1.15;81.24
68508;BME280;55510;49.560;19.090;2024-01-30T17:19:26;97954.91;;;1.04;81.19
68508;BME280;55510;49.560;19.090;2024-01-30T17:22:27;97953.56;;;0.99;81.81
68508;BME280;55510;49.560;19.090;2024-01-30T17:25:29;97953.16;;;0.94;81.81
68508;BME280;55510;49.560;19.090;2024-01-30T17:28:30;97951.81;;;1.18;80.22
68508;BME280;55510;49.560;19.090;2024-01-30T17:31:30;97940.00;;;1.04;81.10
68508;BME280;55510;49.560;19.090;2024-01-30T17:34:32;97940.72;;;0.96;81.07
68508;BME280;55510;49.560;19.090;2024-01-30T17:37:32;97942.38;;;0.97;80.79
68508;BME280;55510;49.560;19.090;2024-01-30T17:40:35;97944.91;;;1.17;79.38
68508;BME280;55510;49.560;19.090;2024-01-30T17:43:35;97945.31;;;1.22;78.70
68508;BME280;55510;49.560;19.090;2024-01-30T17:46:37;97948.44;;;1.36;77.93
68508;BME280;55510;49.560;19.090;2024-01-30T17:49:38;97949.16;;;1.28;77.89
68508;BME280;55510;49.560;19.090;2024-01-30T17:52:39;97945.81;;;1.36;77.44
68508;BME280;55510;49.560;19.090;2024-01-30T17:55:39;97946.38;;;1.29;77.43
68508;BME280;55510;49.560;19.090;2024-01-30T17:58:40;97951.59;;;1.29;77.35
68508;BME280;55510;49.560;19.090;2024-01-30T18:01:46;97947.13;;;1.22;77.46
68508;BME280;55510;49.560;19.090;2024-01-30T18:04:47;97940.06;;;1.22;77.58
68508;BME280;55510;49.560;19.090;2024-01-30T18:07:48;97951.13;;;1.16;77.28
68508;BME280;55510;49.560;19.090;2024-01-30T18:10:49;97949.47;;;1.15;77.30
68508;BME280;55510;49.560;19.090;2024-01-30T18:13:52;97947.09;;;0.84;78.86
68508;BME280;55510;49.560;19.090;2024-01-30T18:16:56;97943.56;;;0.65;79.88
68508;BME280;55510;49.560;19.090;2024-01-30T18:19:56;97942.50;;;0.48;81.09
68508;BME280;55510;49.560;19.090;2024-01-30T18:22:57;97941.66;;;0.57;80.05
68508;BME280;55510;49.560;19.090;2024-01-30T18:25:58;97945.78;;;0.70;78.70
68508;BME280;55510;49.560;19.090;2024-01-30T18:29:01;97942.91;;;0.53;79.80
68508;BME280;55510;49.560;19.090;2024-01-30T18:32:03;97944.72;;;0.33;81.01
68508;BME280;55510;49.560;19.090;2024-01-30T18:35:04;97939.38;;;0.05;82.28
68508;BME280;55510;49.560;19.090;2024-01-30T18:38:04;97935.63;;;-0.02;82.92
68508;BME280;55510;49.560;19.090;2024-01-30T18:41:05;97933.47;;;-0.07;83.19
68508;BME280;55510;49.560;19.090;2024-01-30T18:44:06;97936.75;;;-0.05;82.89
68508;BME280;55510;49.560;19.090;2024-01-30T18:47:07;97938.69;;;-0.17;83.36
68508;BME280;55510;49.560;19.090;2024-01-30T18:50:08;97934.81;;;-0.32;84.21
68508;BME280;55510;49.560;19.090;2024-01-30T18:53:09;97932.06;;;-0.40;84.44
68508;BME280;55510;49.560;19.090;2024-01-30T18:56:09;97936.59;;;-0.23;83.60
68508;BME280;55510;49.560;19.090;2024-01-30T18:59:11;97926.97;;;-0.12;82.99
68508;BME280;55510;49.560;19.090;2024-01-30T19:02:17;97930.13;;;0.31;80.45
68508;BME280;55510;49.560;19.090;2024-01-30T19:05:18;97935.47;;;0.49;78.73
68508;BME280;55510;49.560;19.090;2024-01-30T19:08:18;97936.97;;;0.61;78.19
68508;BME280;55510;49.560;19.090;2024-01-30T19:11:20;97935.44;;;0.68;77.28
68508;BME280;55510;49.560;19.090;2024-01-30T19:14:23;97938.31;;;0.75;76.55
68508;BME280;55510;49.560;19.090;2024-01-30T19:17:24;97939.69;;;0.69;77.28
68508;BME280;55510;49.560;19.090;2024-01-30T19:20:25;97937.94;;;0.50;77.67
68508;BME280;55510;49.560;19.090;2024-01-30T19:23:26;97932.59;;;0.52;77.73
68508;BME280;55510;49.560;19.090;2024-01-30T19:26:26;97939.59;;;0.51;77.35
68508;BME280;55510;49.560;19.090;2024-01-30T19:29:27;97942.78;;;0.35;78.21
68508;BME280;55510;49.560;19.090;2024-01-30T19:32:27;97939.50;;;0.33;77.87
68508;BME280;55510;49.560;19.090;2024-01-30T19:35:28;97937.03;;;0.32;78.20
68508;BME280;55510;49.560;19.090;2024-01-30T19:38:29;97940.03;;;0.47;77.17
68508;BME280;55510;49.560;19.090;2024-01-30T19:41:30;97943.97;;;0.70;75.46
68508;BME280;55510;49.560;19.090;2024-01-30T19:44:30;97947.66;;;0.78;74.80
68508;BME280;55510;49.560;19.090;2024-01-30T19:47:32;97950.75;;;0.73;75.16
68508;BME280;55510;49.560;19.090;2024-01-30T19:50:32;97942.19;;;0.71;75.29
68508;BME280;55510;49.560;19.090;2024-01-30T19:53:33;97941.47;;;0.79;74.71
68508;BME280;55510;49.560;19.090;2024-01-30T19:56:33;97943.50;;;0.85;73.85
68508;BME280;55510;49.560;19.090;2024-01-30T19:59:34;97951.94;;;0.79;74.29
68508;BME280;55510;49.560;19.090;2024-01-30T20:02:35;97944.66;;;0.72;74.33
68508;BME280;55510;49.560;19.090;2024-01-30T20:05:36;97949.09;;;0.62;74.90
68508;BME280;55510;49.560;19.090;2024-01-30T20:08:37;97947.72;;;0.58;75.14
68508;BME280;55510;49.560;19.090;2024-01-30T20:11:38;97950.25;;;0.50;75.33
68508;BME280;55510;49.560;19.090;2024-01-30T20:14:39;97948.31;;;0.32;76.33
68508;BME280;55510;49.560;19.090;2024-01-30T20:17:40;97945.97;;;0.19;77.20
68508;BME280;55510;49.560;19.090;2024-01-30T20:20:42;97945.56;;;0.14;78.10
68508;BME280;55510;49.560;19.090;2024-01-30T20:23:44;97942.28;;;0.02;78.79
68508;BME280;55510;49.560;19.090;2024-01-30T20:26:44;97947.06;;;-0.03;79.82
68508;BME280;55510;49.560;19.090;2024-01-30T20:29:45;97952.75;;;-0.08;80.53
68508;BME280;55510;49.560;19.090;2024-01-30T20:32:46;97958.38;;;-0.12;79.93
68508;BME280;55510;49.560;19.090;2024-01-30T20:35:47;97946.66;;;-0.28;79.69
68508;BME280;55510;49.560;19.090;2024-01-30T20:38:48;97941.66;;;-0.51;79.68
68508;BME280;55510;49.560;19.090;2024-01-30T20:41:48;97935.69;;;-0.73;80.18
68508;BME280;55510;49.560;19.090;2024-01-30T20:44:49;97938.50;;;-0.95;80.97
68508;BME280;55510;49.560;19.090;2024-01-30T20:47:50;97933.72;;;-1.21;81.65
68508;BME280;55510;49.560;19.090;2024-01-30T20:50:50;97937.19;;;-1.42;82.89
68508;BME280;55510;49.560;19.090;2024-01-30T20:53:51;97937.50;;;-1.56;84.72
68508;BME280;55510;49.560;19.090;2024-01-30T20:56:52;97944.47;;;-1.67;85.48
68508;BME280;55510;49.560;19.090;2024-01-30T20:59:53;97931.00;;;-1.83;86.39
68508;BME280;55510;49.560;19.090;2024-01-30T21:02:53;97932.81;;;-1.84;86.51
68508;BME280;55510;49.560;19.090;2024-01-30T21:05:55;97922.19;;;-2.04;87.01
68508;BME280;55510;49.560;19.090;2024-01-30T21:08:56;97923.47;;;-2.19;88.50
68508;BME280;55510;49.560;19.090;2024-01-30T21:11:56;97919.66;;;-2.15;88.59
68508;BME280;55510;49.560;19.090;2024-01-30T21:14:57;97920.50;;;-2.26;88.03
68508;BME280;55510;49.560;19.090;2024-01-30T21:17:58;97927.91;;;-2.42;91.05
68508;BME280;55510;49.560;19.090;2024-01-30T21:20:58;97922.75;;;-2.54;92.15
68508;BME280;55510;49.560;19.090;2024-01-30T21:23:59;97921.91;;;-2.54;91.24
68508;BME280;55510;49.560;19.090;2024-01-30T21:26:59;97931.06;;;-2.60;92.80
68508;BME280;55510;49.560;19.090;2024-01-30T21:30:00;97927.50;;;-2.59;92.06
68508;BME280;55510;49.560;19.090;2024-01-30T21:33:01;97924.88;;;-2.70;93.18
68508;BME280;55510;49.560;19.090;2024-01-30T21:36:02;97927.50;;;-2.59;91.84
68508;BME280;55510;49.560;19.090;2024-01-30T21:39:03;97916.81;;;-2.56;91.17
68508;BME280;55510;49.560;19.090;2024-01-30T21:42:04;97922.28;;;-2.59;90.78
68508;BME280;55510;49.560;19.090;2024-01-30T21:45:05;97913.06;;;-2.63;90.87
68508;BME280;55510;49.560;19.090;2024-01-30T21:48:07;97918.38;;;-2.65;91.20
68508;BME280;55510;49.560;19.090;2024-01-30T21:51:07;97914.22;;;-2.67;91.65
68508;BME280;55510;49.560;19.090;2024-01-30T22:15:27;97914.22;;;-2.67;91.89
68508;BME280;55510;49.560;19.090;2024-01-30T22:18:29;97916.81;;;-2.56;91.39
68508;BME280;55510;49.560;19.090;2024-01-30T22:21:30;97927.59;;;-2.60;91.19
68508;BME280;55510;49.560;19.090;2024-01-30T22:24:30;97933.03;;;-2.52;90.64
68508;BME280;55510;49.560;19.090;2024-01-30T22:27:31;97928.91;;;-2.55;90.74
68508;BME280;55510;49.560;19.090;2024-01-30T22:30:32;97927.88;;;-2.75;91.71
68508;BME280;55510;49.560;19.090;2024-01-30T22:33:32;97930.97;;;-2.81;92.08
68508;BME280;55510;49.560;19.090;2024-01-30T22:36:33;97930.47;;;-2.75;92.42
68508;BME280;55510;49.560;19.090;2024-01-30T22:39:34;97937.47;;;-2.64;92.77
68508;BME280;55510;49.560;19.090;2024-01-30T22:42:35;97939.78;;;-2.50;93.31
68508;BME280;55510;49.560;19.090;2024-01-30T22:45:36;97940.25;;;-2.44;92.29
68508;BME280;55510;49.560;19.090;2024-01-30T22:48:37;97930.63;;;-2.44;92.10
68508;BME280;55510;49.560;19.090;2024-01-30T22:51:38;97938.25;;;-2.41;92.18
68508;BME280;55510;49.560;19.090;2024-01-30T22:54:38;97934.94;;;-2.43;92.19
68508;BME280;55510;49.560;19.090;2024-01-30T22:57:39;97931.47;;;-2.43;91.57
68508;BME280;55510;49.560;19.090;2024-01-30T23:00:40;97945.13;;;-2.51;90.93
68508;BME280;55510;49.560;19.090;2024-01-30T23:03:41;97936.03;;;-2.57;91.15
68508;BME280;55510;49.560;19.090;2024-01-30T23:06:42;97944.53;;;-2.55;90.84
68508;BME280;55510;49.560;19.090;2024-01-30T23:09:43;97940.63;;;-2.60;90.54
68508;BME280;55510;49.560;19.090;2024-01-30T23:12:47;97939.22;;;-2.65;90.70
68508;BME280;55510;49.560;19.090;2024-01-30T23:15:47;97940.28;;;-2.67;90.65
68508;BME280;55510;49.560;19.090;2024-01-30T23:18:49;97937.09;;;-2.71;90.03
68508;BME280;55510;49.560;19.090;2024-01-30T23:21:50;97938.66;;;-2.91;90.50
68508;BME280;55510;49.560;19.090;2024-01-30T23:24:51;97943.03;;;-2.92;91.12
68508;BME280;55510;49.560;19.090;2024-01-30T23:27:52;97942.69;;;-2.98;91.02
68508;BME280;55510;49.560;19.090;2024-01-30T23:30:53;97944.84;;;-3.03;91.74
68508;BME280;55510;49.560;19.090;2024-01-30T23:33:53;97946.13;;;-3.21;93.02
68508;BME280;55510;49.560;19.090;2024-01-30T23:36:54;97941.25;;;-3.25;93.63
68508;BME280;55510;49.560;19.090;2024-01-30T23:39:54;97934.06;;;-3.22;93.48